sensor_id;sensor_type;location;lat;lon;timestamp;P1;durP1;ratioP1;P2;durP2;ratioP2
40489;SDS011;26196;52.302;10.572;2022-08-19T00:03:08;2.90;;;2.70;;
40489;SDS011;26196;52.302;10.572;2022-08-19T00:07:09;3.10;;;2.80;;
40489;SDS011;26196;52.302;10.572;2022-08-19T00:11:09;3.95;;;3.15;;
40489;SDS011;26196;52.302;10.572;2022-08-19T00:15:15;4.40;;;3.35;;
40489;SDS011;26196;52.302;10.572;2022-08-19T00:19:18;3.50;;;3.17;;
40489;SDS011;26196;52.302;10.572;2022-08-19T00:23:18;3.60;;;2.95;;
40489;SDS011;26196;52.302;10.572;2022-08-19T00:27:19;3.22;;;2.80;;
40489;SDS011;26196;52.302;10.572;2022-08-19T00:31:19;3.72;;;2.50;;
40489;SDS011;26196;52.302;10.572;2022-08-19T00:35:21;4.88;;;3.38;;
40489;SDS011;26196;52.302;10.572;2022-08-19T00:39:21;4.18;;;3.20;;
40489;SDS011;26196;52.302;10.572;2022-08-19T00:43:23;4.50;;;3.50;;
40489;SDS011;26196;52.302;10.572;2022-08-19T00:47:26;5.45;;;3.22;;
40489;SDS011;26196;52.302;10.572;2022-08-19T00:51:27;3.95;;;3.17;;
40489;SDS011;26196;52.302;10.572;2022-08-19T00:55:32;3.37;;;3.03;;
40489;SDS011;26196;52.302;10.572;2022-08-19T00:59:34;3.63;;;3.10;;
40489;SDS011;26196;52.302;10.572;2022-08-19T01:03:36;4.28;;;3.10;;
40489;SDS011;26196;52.302;10.572;2022-08-19T01:07:37;2.90;;;2.47;;
40489;SDS011;26196;52.302;10.572;2022-08-19T01:11:41;3.35;;;2.85;;
40489;SDS011;26196;52.302;10.572;2022-08-19T01:15:52;4.15;;;3.20;;
40489;SDS011;26196;52.302;10.572;2022-08-19T01:19:56;3.60;;;3.20;;
40489;SDS011;26196;52.302;10.572;2022-08-19T01:23:57;3.92;;;3.30;;
40489;SDS011;26196;52.302;10.572;2022-08-19T01:27:58;2.83;;;2.50;;
40489;SDS011;26196;52.302;10.572;2022-08-19T01:31:58;3.30;;;2.58;;
40489;SDS011;26196;52.302;10.572;2022-08-19T01:36:07;3.00;;;2.70;;
40489;SDS011;26196;52.302;10.572;2022-08-19T01:40:09;4.00;;;3.05;;
40489;SDS011;26196;52.302;10.572;2022-08-19T01:44:11;3.03;;;2.55;;
40489;SDS011;26196;52.302;10.572;2022-08-19T01:48:11;4.25;;;2.88;;
40489;SDS011;26196;52.302;10.572;2022-08-19T01:52:12;3.17;;;2.75;;
40489;SDS011;26196;52.302;10.572;2022-08-19T01:56:13;4.30;;;3.30;;
40489;SDS011;26196;52.302;10.572;2022-08-19T02:00:14;4.63;;;2.80;;
40489;SDS011;26196;52.302;10.572;2022-08-19T02:04:18;3.45;;;2.88;;
40489;SDS011;26196;52.302;10.572;2022-08-19T02:08:19;3.72;;;2.95;;
40489;SDS011;26196;52.302;10.572;2022-08-19T02:12:19;4.15;;;3.00;;
40489;SDS011;26196;52.302;10.572;2022-08-19T02:16:20;3.55;;;2.33;;
40489;SDS011;26196;52.302;10.572;2022-08-19T02:20:21;3.00;;;2.70;;
40489;SDS011;26196;52.302;10.572;2022-08-19T02:24:22;4.25;;;2.85;;
40489;SDS011;26196;52.302;10.572;2022-08-19T02:28:22;3.53;;;2.88;;
40489;SDS011;26196;52.302;10.572;2022-08-19T02:32:23;4.25;;;3.13;;
40489;SDS011;26196;52.302;10.572;2022-08-19T02:36:24;4.97;;;2.65;;
40489;SDS011;26196;52.302;10.572;2022-08-19T02:40:25;2.85;;;2.50;;
40489;SDS011;26196;52.302;10.572;2022-08-19T02:44:27;2.97;;;2.65;;
40489;SDS011;26196;52.302;10.572;2022-08-19T02:48:28;3.67;;;3.05;;
40489;SDS011;26196;52.302;10.572;2022-08-19T02:52:31;5.10;;;3.25;;
40489;SDS011;26196;52.302;10.572;2022-08-19T02:56:36;3.35;;;2.40;;
40489;SDS011;26196;52.302;10.572;2022-08-19T03:00:49;3.45;;;2.65;;
40489;SDS011;26196;52.302;10.572;2022-08-19T03:04:50;3.22;;;2.58;;
40489;SDS011;26196;52.302;10.572;2022-08-19T03:08:51;4.72;;;2.78;;
40489;SDS011;26196;52.302;10.572;2022-08-19T03:12:52;4.45;;;2.80;;
40489;SDS011;26196;52.302;10.572;2022-08-19T03:16:52;3.10;;;2.33;;
40489;SDS011;26196;52.302;10.572;2022-08-19T03:20:53;2.85;;;2.60;;
40489;SDS011;26196;52.302;10.572;2022-08-19T03:24:54;5.35;;;3.42;;
40489;SDS011;26196;52.302;10.572;2022-08-19T03:28:54;2.67;;;2.30;;
40489;SDS011;26196;52.302;10.572;2022-08-19T03:32:56;5.43;;;2.75;;
40489;SDS011;26196;52.302;10.572;2022-08-19T03:36:58;3.40;;;2.70;;
40489;SDS011;26196;52.302;10.572;2022-08-19T03:41:03;4.47;;;2.85;;
40489;SDS011;26196;52.302;10.572;2022-08-19T03:45:06;3.63;;;2.47;;
40489;SDS011;26196;52.302;10.572;2022-08-19T03:49:07;2.90;;;2.60;;
40489;SDS011;26196;52.302;10.572;2022-08-19T03:53:08;5.25;;;2.63;;
40489;SDS011;26196;52.302;10.572;2022-08-19T03:57:08;3.00;;;2.70;;
40489;SDS011;26196;52.302;10.572;2022-08-19T04:01:10;2.97;;;2.60;;
40489;SDS011;26196;52.302;10.572;2022-08-19T04:05:13;2.97;;;2.60;;
40489;SDS011;26196;52.302;10.572;2022-08-19T04:09:15;3.47;;;2.72;;
40489;SDS011;26196;52.302;10.572;2022-08-19T04:13:16;4.15;;;2.85;;
40489;SDS011;26196;52.302;10.572;2022-08-19T04:17:17;3.75;;;2.38;;
40489;SDS011;26196;52.302;10.572;2022-08-19T04:21:20;4.35;;;2.70;;
40489;SDS011;26196;52.302;10.572;2022-08-19T04:25:22;3.63;;;2.78;;
40489;SDS011;26196;52.302;10.572;2022-08-19T04:29:23;2.90;;;2.50;;
40489;SDS011;26196;52.302;10.572;2022-08-19T04:33:25;2.55;;;1.98;;
40489;SDS011;26196;52.302;10.572;2022-08-19T04:37:26;4.60;;;1.98;;
40489;SDS011;26196;52.302;10.572;2022-08-19T04:41:27;2.60;;;2.40;;
40489;SDS011;26196;52.302;10.572;2022-08-19T04:45:46;3.28;;;2.47;;
40489;SDS011;26196;52.302;10.572;2022-08-19T04:49:47;4.15;;;2.65;;
40489;SDS011;26196;52.302;10.572;2022-08-19T04:53:48;5.55;;;2.55;;
40489;SDS011;26196;52.302;10.572;2022-08-19T04:57:48;3.15;;;2.50;;
40489;SDS011;26196;52.302;10.572;2022-08-19T05:01:50;2.50;;;2.20;;
40489;SDS011;26196;52.302;10.572;2022-08-19T05:05:51;2.95;;;2.70;;
40489;SDS011;26196;52.302;10.572;2022-08-19T05:09:52;2.70;;;2.17;;
40489;SDS011;26196;52.302;10.572;2022-08-19T05:13:52;2.28;;;1.90;;
40489;SDS011;26196;52.302;10.572;2022-08-19T05:17:53;2.90;;;2.17;;
40489;SDS011;26196;52.302;10.572;2022-08-19T05:22:11;3.67;;;2.28;;
40489;SDS011;26196;52.302;10.572;2022-08-19T05:26:30;3.13;;;2.70;;
40489;SDS011;26196;52.302;10.572;2022-08-19T05:30:31;3.20;;;2.10;;
40489;SDS011;26196;52.302;10.572;2022-08-19T05:34:34;4.43;;;2.63;;
40489;SDS011;26196;52.302;10.572;2022-08-19T05:38:35;2.88;;;1.88;;
40489;SDS011;26196;52.302;10.572;2022-08-19T05:42:35;3.00;;;2.22;;
40489;SDS011;26196;52.302;10.572;2022-08-19T05:46:37;2.22;;;2.03;;
40489;SDS011;26196;52.302;10.572;2022-08-19T05:50:39;2.55;;;1.92;;
40489;SDS011;26196;52.302;10.572;2022-08-19T05:54:41;2.60;;;2.40;;
40489;SDS011;26196;52.302;10.572;2022-08-19T05:58:43;4.18;;;2.10;;
40489;SDS011;26196;52.302;10.572;2022-08-19T06:02:44;2.53;;;2.22;;
40489;SDS011;26196;52.302;10.572;2022-08-19T06:06:46;3.55;;;2.70;;
40489;SDS011;26196;52.302;10.572;2022-08-19T06:10:47;2.40;;;1.98;;
40489;SDS011;26196;52.302;10.572;2022-08-19T06:14:48;2.97;;;2.13;;
40489;SDS011;26196;52.302;10.572;2022-08-19T06:18:51;2.92;;;2.30;;
40489;SDS011;26196;52.302;10.572;2022-08-19T06:22:52;2.83;;;2.20;;
40489;SDS011;26196;52.302;10.572;2022-08-19T06:26:54;3.10;;;2.15;;
40489;SDS011;26196;52.302;10.572;2022-08-19T06:30:55;1.95;;;1.55;;
40489;SDS011;26196;52.302;10.572;2022-08-19T06:35:01;2.00;;;1.80;;
40489;SDS011;26196;52.302;10.572;2022-08-19T06:39:06;2.80;;;2.00;;
40489;SDS011;26196;52.302;10.572;2022-08-19T06:43:08;2.65;;;1.95;;
40489;SDS011;26196;52.302;10.572;2022-08-19T06:47:09;4.05;;;2.35;;
40489;SDS011;26196;52.302;10.572;2022-08-19T06:51:14;2.63;;;1.90;;
40489;SDS011;26196;52.302;10.572;2022-08-19T06:55:18;2.10;;;1.90;;
40489;SDS011;26196;52.302;10.572;2022-08-19T06:59:20;4.13;;;1.90;;
40489;SDS011;26196;52.302;10.572;2022-08-19T07:03:22;3.60;;;1.90;;
40489;SDS011;26196;52.302;10.572;2022-08-19T07:07:22;3.05;;;1.98;;
40489;SDS011;26196;52.302;10.572;2022-08-19T07:11:23;2.22;;;1.50;;
40489;SDS011;26196;52.302;10.572;2022-08-19T07:15:24;1.75;;;1.63;;
40489;SDS011;26196;52.302;10.572;2022-08-19T07:19:25;3.95;;;2.03;;
40489;SDS011;26196;52.302;10.572;2022-08-19T07:23:27;2.10;;;1.60;;
40489;SDS011;26196;52.302;10.572;2022-08-19T07:27:27;3.25;;;2.15;;
40489;SDS011;26196;52.302;10.572;2022-08-19T07:31:28;2.03;;;1.83;;
40489;SDS011;26196;52.302;10.572;2022-08-19T07:35:28;2.67;;;2.15;;
40489;SDS011;26196;52.302;10.572;2022-08-19T07:39:33;1.95;;;1.80;;
40489;SDS011;26196;52.302;10.572;2022-08-19T07:43:35;2.05;;;1.88;;
40489;SDS011;26196;52.302;10.572;2022-08-19T07:47:35;3.38;;;1.90;;
40489;SDS011;26196;52.302;10.572;2022-08-19T07:51:36;2.05;;;1.80;;
40489;SDS011;26196;52.302;10.572;2022-08-19T07:55:36;2.25;;;1.67;;
40489;SDS011;26196;52.302;10.572;2022-08-19T07:59:37;3.58;;;2.30;;
40489;SDS011;26196;52.302;10.572;2022-08-19T08:03:37;2.35;;;1.65;;
40489;SDS011;26196;52.302;10.572;2022-08-19T08:07:56;3.55;;;1.83;;
40489;SDS011;26196;52.302;10.572;2022-08-19T08:12:17;2.75;;;1.80;;
40489;SDS011;26196;52.302;10.572;2022-08-19T08:16:24;1.77;;;1.60;;
40489;SDS011;26196;52.302;10.572;2022-08-19T08:20:29;2.63;;;1.58;;
40489;SDS011;26196;52.302;10.572;2022-08-19T08:24:30;2.33;;;1.60;;
40489;SDS011;26196;52.302;10.572;2022-08-19T08:28:31;1.83;;;1.73;;
40489;SDS011;26196;52.302;10.572;2022-08-19T08:32:32;2.85;;;1.88;;
40489;SDS011;26196;52.302;10.572;2022-08-19T08:36:32;2.70;;;2.00;;
40489;SDS011;26196;52.302;10.572;2022-08-19T08:40:50;1.75;;;1.65;;
40489;SDS011;26196;52.302;10.572;2022-08-19T08:45:10;2.10;;;1.90;;
40489;SDS011;26196;52.302;10.572;2022-08-19T08:53:16;1.98;;;1.52;;
40489;SDS011;26196;52.302;10.572;2022-08-19T09:01:36;2.30;;;1.70;;
40489;SDS011;26196;52.302;10.572;2022-08-19T09:05:41;1.83;;;1.58;;
40489;SDS011;26196;52.302;10.572;2022-08-19T09:09:56;2.20;;;1.70;;
40489;SDS011;26196;52.302;10.572;2022-08-19T09:18:14;3.42;;;1.83;;
40489;SDS011;26196;52.302;10.572;2022-08-19T09:22:16;2.22;;;1.85;;
40489;SDS011;26196;52.302;10.572;2022-08-19T09:26:17;1.98;;;1.70;;
40489;SDS011;26196;52.302;10.572;2022-08-19T09:30:21;2.40;;;1.90;;
40489;SDS011;26196;52.302;10.572;2022-08-19T09:34:24;2.00;;;1.50;;
40489;SDS011;26196;52.302;10.572;2022-08-19T09:38:24;1.92;;;1.50;;
40489;SDS011;26196;52.302;10.572;2022-08-19T09:42:25;2.28;;;1.48;;
40489;SDS011;26196;52.302;10.572;2022-08-19T09:46:27;2.15;;;1.42;;
40489;SDS011;26196;52.302;10.572;2022-08-19T09:50:28;2.17;;;1.65;;
40489;SDS011;26196;52.302;10.572;2022-08-19T09:54:35;3.10;;;1.65;;
40489;SDS011;26196;52.302;10.572;2022-08-19T09:58:36;2.67;;;2.17;;
40489;SDS011;26196;52.302;10.572;2022-08-19T10:02:39;3.53;;;2.00;;
40489;SDS011;26196;52.302;10.572;2022-08-19T10:06:40;1.73;;;1.58;;
40489;SDS011;26196;52.302;10.572;2022-08-19T10:10:42;4.70;;;2.40;;
40489;SDS011;26196;52.302;10.572;2022-08-19T10:14:43;3.08;;;2.65;;
40489;SDS011;26196;52.302;10.572;2022-08-19T10:18:44;1.85;;;1.65;;
40489;SDS011;26196;52.302;10.572;2022-08-19T10:22:45;2.72;;;2.00;;
40489;SDS011;26196;52.302;10.572;2022-08-19T10:26:45;3.28;;;2.00;;
40489;SDS011;26196;52.302;10.572;2022-08-19T10:30:48;3.03;;;1.83;;
40489;SDS011;26196;52.302;10.572;2022-08-19T10:34:48;3.15;;;2.60;;
40489;SDS011;26196;52.302;10.572;2022-08-19T10:38:50;4.07;;;1.83;;
40489;SDS011;26196;52.302;10.572;2022-08-19T10:42:52;2.40;;;2.00;;
40489;SDS011;26196;52.302;10.572;2022-08-19T10:46:55;2.50;;;2.20;;
40489;SDS011;26196;52.302;10.572;2022-08-19T10:50:58;3.28;;;2.30;;
40489;SDS011;26196;52.302;10.572;2022-08-19T10:55:19;2.45;;;1.60;;
40489;SDS011;26196;52.302;10.572;2022-08-19T10:59:40;3.55;;;2.40;;
40489;SDS011;26196;52.302;10.572;2022-08-19T11:03:40;3.42;;;2.55;;
40489;SDS011;26196;52.302;10.572;2022-08-19T11:07:41;2.45;;;1.80;;
40489;SDS011;26196;52.302;10.572;2022-08-19T11:11:44;3.13;;;2.13;;
40489;SDS011;26196;52.302;10.572;2022-08-19T11:15:45;2.03;;;1.83;;
40489;SDS011;26196;52.302;10.572;2022-08-19T11:19:47;2.47;;;2.22;;
40489;SDS011;26196;52.302;10.572;2022-08-19T11:23:49;2.70;;;2.13;;
40489;SDS011;26196;52.302;10.572;2022-08-19T11:27:51;2.83;;;2.17;;
40489;SDS011;26196;52.302;10.572;2022-08-19T11:31:54;2.20;;;1.77;;
40489;SDS011;26196;52.302;10.572;2022-08-19T11:35:56;2.33;;;2.05;;
40489;SDS011;26196;52.302;10.572;2022-08-19T11:39:59;2.17;;;1.83;;
40489;SDS011;26196;52.302;10.572;2022-08-19T11:43:59;3.42;;;1.85;;
40489;SDS011;26196;52.302;10.572;2022-08-19T11:48:00;2.17;;;1.67;;
40489;SDS011;26196;52.302;10.572;2022-08-19T11:52:00;2.83;;;1.90;;
40489;SDS011;26196;52.302;10.572;2022-08-19T11:56:02;2.25;;;1.98;;
40489;SDS011;26196;52.302;10.572;2022-08-19T12:00:04;2.50;;;2.05;;
40489;SDS011;26196;52.302;10.572;2022-08-19T12:04:06;2.22;;;2.03;;
40489;SDS011;26196;52.302;10.572;2022-08-19T12:08:07;3.85;;;1.75;;
40489;SDS011;26196;52.302;10.572;2022-08-19T12:12:09;2.58;;;1.98;;
40489;SDS011;26196;52.302;10.572;2022-08-19T12:16:10;4.38;;;3.05;;
40489;SDS011;26196;52.302;10.572;2022-08-19T12:20:12;1.80;;;1.33;;
40489;SDS011;26196;52.302;10.572;2022-08-19T12:24:15;2.20;;;1.85;;
40489;SDS011;26196;52.302;10.572;2022-08-19T12:28:21;2.33;;;2.10;;
40489;SDS011;26196;52.302;10.572;2022-08-19T12:32:23;2.00;;;1.60;;
40489;SDS011;26196;52.302;10.572;2022-08-19T12:36:24;1.70;;;1.58;;
40489;SDS011;26196;52.302;10.572;2022-08-19T12:40:25;1.98;;;1.63;;
40489;SDS011;26196;52.302;10.572;2022-08-19T12:44:25;2.25;;;1.98;;
40489;SDS011;26196;52.302;10.572;2022-08-19T12:48:26;2.22;;;1.70;;
40489;SDS011;26196;52.302;10.572;2022-08-19T12:52:26;1.88;;;1.58;;
40489;SDS011;26196;52.302;10.572;2022-08-19T12:56:28;2.85;;;1.60;;
40489;SDS011;26196;52.302;10.572;2022-08-19T13:00:28;1.60;;;1.42;;
40489;SDS011;26196;52.302;10.572;2022-08-19T13:04:30;1.63;;;1.52;;
40489;SDS011;26196;52.302;10.572;2022-08-19T13:08:30;1.75;;;1.63;;
40489;SDS011;26196;52.302;10.572;2022-08-19T13:12:30;1.58;;;1.48;;
40489;SDS011;26196;52.302;10.572;2022-08-19T13:16:31;2.03;;;1.85;;
40489;SDS011;26196;52.302;10.572;2022-08-19T13:20:32;1.60;;;1.50;;
40489;SDS011;26196;52.302;10.572;2022-08-19T13:24:33;2.30;;;1.98;;
40489;SDS011;26196;52.302;10.572;2022-08-19T13:28:34;2.00;;;1.60;;
40489;SDS011;26196;52.302;10.572;2022-08-19T13:32:53;1.50;;;1.33;;
40489;SDS011;26196;52.302;10.572;2022-08-19T13:37:12;1.33;;;1.15;;
40489;SDS011;26196;52.302;10.572;2022-08-19T13:41:12;1.67;;;1.58;;
40489;SDS011;26196;52.302;10.572;2022-08-19T13:45:14;1.20;;;1.10;;
40489;SDS011;26196;52.302;10.572;2022-08-19T13:49:18;1.83;;;1.58;;
40489;SDS011;26196;52.302;10.572;2022-08-19T13:53:20;1.77;;;1.65;;
40489;SDS011;26196;52.302;10.572;2022-08-19T13:57:20;1.40;;;1.30;;
40489;SDS011;26196;52.302;10.572;2022-08-19T14:01:21;1.70;;;1.60;;
40489;SDS011;26196;52.302;10.572;2022-08-19T14:05:22;2.22;;;1.50;;
40489;SDS011;26196;52.302;10.572;2022-08-19T14:09:24;1.35;;;1.25;;
40489;SDS011;26196;52.302;10.572;2022-08-19T14:13:25;1.52;;;1.42;;
40489;SDS011;26196;52.302;10.572;2022-08-19T14:17:26;1.98;;;1.48;;
40489;SDS011;26196;52.302;10.572;2022-08-19T14:21:26;1.70;;;1.60;;
40489;SDS011;26196;52.302;10.572;2022-08-19T14:25:28;1.60;;;1.50;;
40489;SDS011;26196;52.302;10.572;2022-08-19T14:29:30;3.03;;;2.00;;
40489;SDS011;26196;52.302;10.572;2022-08-19T14:33:30;1.55;;;1.45;;
40489;SDS011;26196;52.302;10.572;2022-08-19T14:37:33;1.80;;;1.70;;
40489;SDS011;26196;52.302;10.572;2022-08-19T14:41:34;3.08;;;2.08;;
40489;SDS011;26196;52.302;10.572;2022-08-19T14:45:36;1.92;;;1.70;;
40489;SDS011;26196;52.302;10.572;2022-08-19T14:49:38;2.90;;;1.70;;
40489;SDS011;26196;52.302;10.572;2022-08-19T14:53:39;2.00;;;1.80;;
40489;SDS011;26196;52.302;10.572;2022-08-19T14:57:41;1.80;;;1.67;;
40489;SDS011;26196;52.302;10.572;2022-08-19T15:01:42;1.85;;;1.60;;
40489;SDS011;26196;52.302;10.572;2022-08-19T15:05:43;1.92;;;1.73;;
40489;SDS011;26196;52.302;10.572;2022-08-19T15:09:44;2.40;;;1.92;;
40489;SDS011;26196;52.302;10.572;2022-08-19T15:13:44;2.47;;;2.03;;
40489;SDS011;26196;52.302;10.572;2022-08-19T15:17:46;2.22;;;2.03;;
40489;SDS011;26196;52.302;10.572;2022-08-19T15:21:46;1.85;;;1.55;;
40489;SDS011;26196;52.302;10.572;2022-08-19T15:25:47;2.45;;;2.13;;
40489;SDS011;26196;52.302;10.572;2022-08-19T15:29:48;2.08;;;1.88;;
40489;SDS011;26196;52.302;10.572;2022-08-19T15:33:49;2.20;;;2.00;;
40489;SDS011;26196;52.302;10.572;2022-08-19T15:37:50;2.20;;;2.00;;
40489;SDS011;26196;52.302;10.572;2022-08-19T15:41:51;2.60;;;1.80;;
40489;SDS011;26196;52.302;10.572;2022-08-19T15:45:52;2.15;;;1.95;;
40489;SDS011;26196;52.302;10.572;2022-08-19T15:49:52;2.75;;;1.95;;
40489;SDS011;26196;52.302;10.572;2022-08-19T15:53:53;1.92;;;1.80;;
40489;SDS011;26196;52.302;10.572;2022-08-19T15:57:54;2.15;;;1.95;;
40489;SDS011;26196;52.302;10.572;2022-08-19T16:02:13;2.20;;;2.00;;
40489;SDS011;26196;52.302;10.572;2022-08-19T16:06:34;2.42;;;1.80;;
40489;SDS011;26196;52.302;10.572;2022-08-19T16:10:37;2.00;;;1.80;;
40489;SDS011;26196;52.302;10.572;2022-08-19T16:14:38;2.20;;;2.00;;
40489;SDS011;26196;52.302;10.572;2022-08-19T16:18:39;2.20;;;2.00;;
40489;SDS011;26196;52.302;10.572;2022-08-19T16:22:39;2.05;;;1.80;;
40489;SDS011;26196;52.302;10.572;2022-08-19T16:26:40;2.03;;;1.60;;
40489;SDS011;26196;52.302;10.572;2022-08-19T16:30:42;2.70;;;1.75;;
40489;SDS011;26196;52.302;10.572;2022-08-19T16:34:42;2.22;;;2.03;;
40489;SDS011;26196;52.302;10.572;2022-08-19T16:38:43;1.73;;;1.60;;
40489;SDS011;26196;52.302;10.572;2022-08-19T16:42:47;2.65;;;2.35;;
40489;SDS011;26196;52.302;10.572;2022-08-19T16:46:47;3.63;;;2.10;;
40489;SDS011;26196;52.302;10.572;2022-08-19T16:50:48;2.40;;;2.20;;
40489;SDS011;26196;52.302;10.572;2022-08-19T16:54:49;2.08;;;1.88;;
40489;SDS011;26196;52.302;10.572;2022-08-19T16:58:50;2.08;;;1.88;;
40489;SDS011;26196;52.302;10.572;2022-08-19T17:02:50;2.20;;;2.00;;
40489;SDS011;26196;52.302;10.572;2022-08-19T17:06:51;2.85;;;1.73;;
40489;SDS011;26196;52.302;10.572;2022-08-19T17:10:52;2.65;;;2.45;;
40489;SDS011;26196;52.302;10.572;2022-08-19T17:14:54;2.10;;;1.67;;
40489;SDS011;26196;52.302;10.572;2022-08-19T17:18:56;2.53;;;1.98;;
40489;SDS011;26196;52.302;10.572;2022-08-19T17:22:58;2.10;;;1.77;;
40489;SDS011;26196;52.302;10.572;2022-08-19T17:26:59;2.40;;;2.20;;
40489;SDS011;26196;52.302;10.572;2022-08-19T17:30:59;2.08;;;1.65;;
40489;SDS011;26196;52.302;10.572;2022-08-19T17:35:00;2.45;;;2.10;;
40489;SDS011;26196;52.302;10.572;2022-08-19T17:39:02;1.95;;;1.83;;
40489;SDS011;26196;52.302;10.572;2022-08-19T17:43:03;2.08;;;1.70;;
40489;SDS011;26196;52.302;10.572;2022-08-19T17:47:07;1.90;;;1.70;;
40489;SDS011;26196;52.302;10.572;2022-08-19T17:51:18;2.95;;;2.17;;
40489;SDS011;26196;52.302;10.572;2022-08-19T17:55:24;1.90;;;1.70;;
40489;SDS011;26196;52.302;10.572;2022-08-19T17:59:25;2.83;;;1.70;;
40489;SDS011;26196;52.302;10.572;2022-08-19T18:03:25;1.83;;;1.73;;
40489;SDS011;26196;52.302;10.572;2022-08-19T18:07:29;2.20;;;2.00;;
40489;SDS011;26196;52.302;10.572;2022-08-19T18:11:33;2.15;;;1.85;;
40489;SDS011;26196;52.302;10.572;2022-08-19T18:15:34;2.40;;;2.20;;
40489;SDS011;26196;52.302;10.572;2022-08-19T18:19:35;2.17;;;1.98;;
40489;SDS011;26196;52.302;10.572;2022-08-19T18:23:37;2.33;;;2.13;;
40489;SDS011;26196;52.302;10.572;2022-08-19T18:27:38;1.92;;;1.70;;
40489;SDS011;26196;52.302;10.572;2022-08-19T18:31:38;1.83;;;1.70;;
40489;SDS011;26196;52.302;10.572;2022-08-19T18:35:43;1.90;;;1.67;;
40489;SDS011;26196;52.302;10.572;2022-08-19T18:39:47;1.92;;;1.77;;
40489;SDS011;26196;52.302;10.572;2022-08-19T18:44:06;1.98;;;1.77;;
40489;SDS011;26196;52.302;10.572;2022-08-19T18:48:45;2.13;;;1.80;;
40489;SDS011;26196;52.302;10.572;2022-08-19T18:53:04;2.22;;;1.88;;
40489;SDS011;26196;52.302;10.572;2022-08-19T18:57:04;2.40;;;2.20;;
40489;SDS011;26196;52.302;10.572;2022-08-19T19:05:12;1.77;;;1.67;;
40489;SDS011;26196;52.302;10.572;2022-08-19T19:09:15;2.40;;;1.90;;
40489;SDS011;26196;52.302;10.572;2022-08-19T19:13:18;2.50;;;2.23;;
40489;SDS011;26196;52.302;10.572;2022-08-19T19:17:19;2.40;;;2.20;;
40489;SDS011;26196;52.302;10.572;2022-08-19T19:21:26;2.83;;;2.45;;
40489;SDS011;26196;52.302;10.572;2022-08-19T19:25:27;2.65;;;2.20;;
40489;SDS011;26196;52.302;10.572;2022-08-19T19:29:28;2.78;;;2.58;;
40489;SDS011;26196;52.302;10.572;2022-08-19T19:33:28;2.50;;;2.30;;
40489;SDS011;26196;52.302;10.572;2022-08-19T19:37:29;2.65;;;2.45;;
40489;SDS011;26196;52.302;10.572;2022-08-19T19:41:29;2.20;;;2.00;;
40489;SDS011;26196;52.302;10.572;2022-08-19T19:45:31;2.88;;;2.38;;
40489;SDS011;26196;52.302;10.572;2022-08-19T19:49:32;3.00;;;2.72;;
40489;SDS011;26196;52.302;10.572;2022-08-19T19:53:32;3.13;;;2.83;;
40489;SDS011;26196;52.302;10.572;2022-08-19T19:57:33;3.13;;;2.83;;
40489;SDS011;26196;52.302;10.572;2022-08-19T20:01:33;3.08;;;2.72;;
40489;SDS011;26196;52.302;10.572;2022-08-19T20:05:34;3.58;;;2.88;;
40489;SDS011;26196;52.302;10.572;2022-08-19T20:09:34;3.22;;;2.60;;
40489;SDS011;26196;52.302;10.572;2022-08-19T20:13:35;2.85;;;2.53;;
40489;SDS011;26196;52.302;10.572;2022-08-19T20:17:39;3.10;;;2.70;;
40489;SDS011;26196;52.302;10.572;2022-08-19T20:21:41;2.95;;;2.75;;
40489;SDS011;26196;52.302;10.572;2022-08-19T20:25:44;2.78;;;2.58;;
40489;SDS011;26196;52.302;10.572;2022-08-19T20:29:47;2.85;;;2.55;;
40489;SDS011;26196;52.302;10.572;2022-08-19T20:33:48;2.95;;;2.67;;
40489;SDS011;26196;52.302;10.572;2022-08-19T20:37:48;2.83;;;2.53;;
40489;SDS011;26196;52.302;10.572;2022-08-19T20:41:49;4.10;;;2.28;;
40489;SDS011;26196;52.302;10.572;2022-08-19T20:45:50;3.40;;;3.10;;
40489;SDS011;26196;52.302;10.572;2022-08-19T20:49:51;3.25;;;2.92;;
40489;SDS011;26196;52.302;10.572;2022-08-19T20:53:52;2.75;;;2.47;;
40489;SDS011;26196;52.302;10.572;2022-08-19T20:57:53;3.80;;;2.95;;
40489;SDS011;26196;52.302;10.572;2022-08-19T21:01:53;3.10;;;2.80;;
40489;SDS011;26196;52.302;10.572;2022-08-19T21:05:54;3.22;;;2.78;;
40489;SDS011;26196;52.302;10.572;2022-08-19T21:09:55;3.05;;;2.58;;
40489;SDS011;26196;52.302;10.572;2022-08-19T21:13:56;3.15;;;2.42;;
40489;SDS011;26196;52.302;10.572;2022-08-19T21:17:57;3.75;;;3.35;;
40489;SDS011;26196;52.302;10.572;2022-08-19T21:21:58;3.47;;;3.17;;
40489;SDS011;26196;52.302;10.572;2022-08-19T21:25:59;3.10;;;2.80;;
40489;SDS011;26196;52.302;10.572;2022-08-19T21:30:01;3.00;;;2.70;;
40489;SDS011;26196;52.302;10.572;2022-08-19T21:34:02;2.92;;;2.55;;
40489;SDS011;26196;52.302;10.572;2022-08-19T21:38:04;2.92;;;2.72;;
40489;SDS011;26196;52.302;10.572;2022-08-19T21:42:04;3.53;;;3.20;;
40489;SDS011;26196;52.302;10.572;2022-08-19T21:46:05;3.22;;;2.80;;
40489;SDS011;26196;52.302;10.572;2022-08-19T21:50:06;2.90;;;2.60;;
40489;SDS011;26196;52.302;10.572;2022-08-19T21:54:07;3.20;;;2.90;;
40489;SDS011;26196;52.302;10.572;2022-08-19T21:58:07;3.45;;;2.70;;
40489;SDS011;26196;52.302;10.572;2022-08-19T22:02:08;3.20;;;2.90;;
40489;SDS011;26196;52.302;10.572;2022-08-19T22:06:09;3.45;;;2.80;;
40489;SDS011;26196;52.302;10.572;2022-08-19T22:10:09;3.60;;;2.88;;
40489;SDS011;26196;52.302;10.572;2022-08-19T22:14:10;3.95;;;3.22;;
40489;SDS011;26196;52.302;10.572;2022-08-19T22:18:10;3.72;;;3.30;;
40489;SDS011;26196;52.302;10.572;2022-08-19T22:22:17;4.05;;;2.58;;
40489;SDS011;26196;52.302;10.572;2022-08-19T22:26:26;2.97;;;2.67;;
40489;SDS011;26196;52.302;10.572;2022-08-19T22:30:26;2.83;;;2.55;;
40489;SDS011;26196;52.302;10.572;2022-08-19T22:34:27;3.30;;;2.78;;
40489;SDS011;26196;52.302;10.572;2022-08-19T22:38:29;3.38;;;3.08;;
40489;SDS011;26196;52.302;10.572;2022-08-19T22:42:30;2.80;;;2.58;;
40489;SDS011;26196;52.302;10.572;2022-08-19T22:46:31;3.72;;;3.35;;
40489;SDS011;26196;52.302;10.572;2022-08-19T22:50:33;3.20;;;2.90;;
40489;SDS011;26196;52.302;10.572;2022-08-19T22:54:35;3.58;;;2.67;;
40489;SDS011;26196;52.302;10.572;2022-08-19T22:58:35;3.30;;;3.00;;
40489;SDS011;26196;52.302;10.572;2022-08-19T23:02:37;4.85;;;3.15;;
40489;SDS011;26196;52.302;10.572;2022-08-19T23:06:38;4.30;;;3.17;;
40489;SDS011;26196;52.302;10.572;2022-08-19T23:10:39;3.13;;;2.80;;
40489;SDS011;26196;52.302;10.572;2022-08-19T23:14:40;3.17;;;2.85;;
40489;SDS011;26196;52.302;10.572;2022-08-19T23:18:42;3.10;;;2.75;;
40489;SDS011;26196;52.302;10.572;2022-08-19T23:22:45;3.30;;;3.00;;
40489;SDS011;26196;52.302;10.572;2022-08-19T23:26:48;3.95;;;2.92;;
40489;SDS011;26196;52.302;10.572;2022-08-19T23:31:07;2.65;;;2.45;;
40489;SDS011;26196;52.302;10.572;2022-08-19T23:35:10;3.10;;;2.80;;
40489;SDS011;26196;52.302;10.572;2022-08-19T23:39:11;2.88;;;2.50;;
40489;SDS011;26196;52.302;10.572;2022-08-19T23:43:12;3.72;;;2.80;;
40489;SDS011;26196;52.302;10.572;2022-08-19T23:47:12;2.80;;;2.60;;
40489;SDS011;26196;52.302;10.572;2022-08-19T23:51:13;3.53;;;3.22;;
40489;SDS011;26196;52.302;10.572;2022-08-19T23:55:15;3.67;;;2.53;;
40489;SDS011;26196;52.302;10.572;2022-08-19T23:59:17;2.53;;;2.17;;
